Time;durP1;ratioP1;P1;durP2;ratioP2;P2;SDS_P1;SDS_P2;PMS_P1;PMS_P2;Temp;Humidity;BMP_temperature;BMP_pressure;BME280_temperature;BME280_humidity;BME280_pressure;Samples;Min_cycle;Max_cycle;Signal;HPM_P1;HPM_P2
2024/03/08 00:01:44;;;;;;;27.30;20.90;;;2.20;1.00;;;;;;5060313;28;20462;-65
2024/03/08 00:04:12;;;;;;;27.87;22.70;;;2.20;99.90;;;;;;5060854;28;20470;-65
2024/03/08 00:06:39;;;;;;;26.63;20.73;;;2.20;1.00;;;;;;5059859;28;20778;-65
2024/03/08 00:09:07;;;;;;;28.43;21.33;;;2.10;1.00;;;;;;5059042;28;20498;-65
2024/03/08 00:11:36;;;;;;;24.13;20.77;;;2.10;1.00;;;;;;5060029;28;20453;-65
2024/03/08 00:14:06;;;;;;;27.03;23.40;;;2.00;1.00;;;;;;5060103;28;20454;-65
2024/03/08 00:16:34;;;;;;;27.97;21.30;;;2.00;1.00;;;;;;5059815;28;20497;-65
2024/03/08 00:19:01;;;;;;;27.30;23.17;;;2.00;1.00;;;;;;5059538;28;20963;-65
2024/03/08 00:21:29;;;;;;;30.97;23.33;;;1.90;1.00;;;;;;5059508;28;20488;-65
2024/03/08 00:23:56;;;;;;;28.20;22.93;;;1.90;99.90;;;;;;5059511;28;20466;-64
2024/03/08 00:26:23;;;;;;;24.00;21.40;;;1.80;1.00;;;;;;5057691;28;20494;-65
2024/03/08 00:28:53;;;;;;;26.70;21.20;;;1.70;1.00;;;;;;5058164;28;20490;-64
2024/03/08 00:31:21;;;;;;;28.13;21.70;;;1.70;99.90;;;;;;5057978;28;20560;-64
2024/03/08 00:33:48;;;;;;;25.87;21.80;;;1.70;1.00;;;;;;5058348;28;20454;-64
2024/03/08 00:36:15;;;;;;;24.90;21.30;;;1.70;1.00;;;;;;5058366;28;20462;-65
2024/03/08 00:38:42;;;;;;;32.00;23.80;;;1.60;1.00;;;;;;5059068;28;20457;-65
2024/03/08 00:41:10;;;;;;;25.87;21.77;;;1.60;1.00;;;;;;5059762;28;20489;-65
2024/03/08 00:43:37;;;;;;;25.97;23.17;;;1.50;1.00;;;;;;5059677;28;20523;-65
2024/03/08 00:46:05;;;;;;;27.63;23.30;;;1.50;1.00;;;;;;5059823;28;20466;-65
2024/03/08 00:48:33;;;;;;;26.87;23.43;;;1.50;1.00;;;;;;5059257;28;20464;-65
2024/03/08 00:51:02;;;;;;;27.67;23.40;;;1.50;1.00;;;;;;5059691;28;20808;-65
2024/03/08 00:53:30;;;;;;;29.90;23.50;;;1.40;45.20;;;;;;5059384;28;20754;-65
2024/03/08 00:55:57;;;;;;;28.50;23.27;;;1.40;99.90;;;;;;5059566;28;20830;-64
2024/03/08 00:58:25;;;;;;;29.30;23.30;;;1.40;1.00;;;;;;5058930;28;20510;-65
2024/03/08 01:00:52;;;;;;;28.60;24.70;;;1.40;1.00;;;;;;5059314;28;20481;-65
2024/03/08 01:03:21;;;;;;;30.90;24.57;;;1.40;1.00;;;;;;5059151;28;20462;-65
2024/03/08 01:05:48;;;;;;;30.13;24.10;;;1.40;1.00;;;;;;5059420;28;20557;-65
2024/03/08 01:08:16;;;;;;;28.20;23.10;;;1.40;1.00;;;;;;5059394;28;20464;-65
2024/03/08 01:10:43;;;;;;;27.70;21.93;;;1.40;99.90;;;;;;5059449;28;20493;-65
2024/03/08 01:13:10;;;;;;;27.27;23.10;;;1.40;99.90;;;;;;5059121;28;20515;-65
2024/03/08 01:15:41;;;;;;;26.83;22.27;;;1.30;71.40;;;;;;5059244;28;20700;-65
2024/03/08 01:18:08;;;;;;;25.47;21.83;;;1.30;73.60;;;;;;5059321;28;20854;-65
2024/03/08 01:20:37;;;;;;;28.27;22.47;;;1.20;99.90;;;;;;5059173;28;20553;-65
2024/03/08 01:23:07;;;;;;;28.63;23.67;;;1.30;99.90;;;;;;5058817;28;20458;-65
2024/03/08 01:25:34;;;;;;;30.10;23.90;;;1.30;9.90;;;;;;5058864;28;20469;-65
2024/03/08 01:28:02;;;;;;;28.20;22.90;;;1.30;1.00;;;;;;5058769;28;20537;-65
2024/03/08 01:30:29;;;;;;;34.77;24.23;;;1.20;62.10;;;;;;5059268;28;20497;-65
2024/03/08 01:32:56;;;;;;;28.07;24.00;;;1.20;99.90;;;;;;5058537;28;20442;-65
2024/03/08 01:35:24;;;;;;;31.10;23.40;;;1.20;4.30;;;;;;5058603;28;20464;-65
2024/03/08 01:37:52;;;;;;;28.87;22.50;;;1.10;1.00;;;;;;5059041;28;20469;-65
2024/03/08 01:40:20;;;;;;;33.23;23.77;;;1.20;99.90;;;;;;5058966;28;20550;-65
2024/03/08 01:42:47;;;;;;;27.53;23.03;;;1.10;99.90;;;;;;5058807;28;20454;-65
2024/03/08 01:45:17;;;;;;;28.40;23.53;;;1.20;1.00;;;;;;5058832;28;20564;-65
2024/03/08 01:47:45;;;;;;;33.53;23.97;;;1.10;39.80;;;;;;5058902;28;20462;-59
2024/03/08 01:50:12;;;;;;;30.30;23.97;;;1.10;99.90;;;;;;5058930;28;20533;-58
2024/03/08 01:52:40;;;;;;;28.73;23.93;;;1.10;99.90;;;;;;5059246;28;20490;-58
2024/03/08 01:55:09;;;;;;;31.07;23.30;;;1.20;1.00;;;;;;5058736;28;20883;-58
2024/03/08 01:57:38;;;;;;;28.83;23.43;;;1.20;99.90;;;;;;5058750;28;20462;-59
2024/03/08 02:00:10;;;;;;;34.20;25.30;;;1.10;99.90;;;;;;5059159;28;20515;-58
2024/03/08 02:02:38;;;;;;;29.47;23.90;;;1.00;1.00;;;;;;5058818;28;20472;-58
2024/03/08 02:05:08;;;;;;;31.80;24.30;;;1.00;1.00;;;;;;5058889;28;20941;-57
2024/03/08 02:07:36;;;;;;;32.40;23.90;;;1.00;1.00;;;;;;5058626;28;20814;-58
2024/03/08 02:10:03;;;;;;;28.17;23.80;;;0.90;1.00;;;;;;5058459;28;20829;-58
2024/03/08 02:12:32;;;;;;;30.00;23.87;;;0.90;99.90;;;;;;5058601;28;20540;-58
2024/03/08 02:14:59;;;;;;;28.97;23.70;;;0.90;99.90;;;;;;5058230;28;20465;-58
2024/03/08 02:17:26;;;;;;;30.43;25.17;;;0.90;1.00;;;;;;5058443;28;20489;-58
2024/03/08 02:19:54;;;;;;;32.03;24.83;;;0.90;99.90;;;;;;5058633;28;20454;-58
2024/03/08 02:22:23;;;;;;;29.60;24.50;;;0.90;99.90;;;;;;5058578;28;20460;-59
2024/03/08 02:24:51;;;;;;;32.47;23.80;;;0.90;99.90;;;;;;5058195;28;20454;-58
2024/03/08 02:27:25;;;;;;;30.83;24.43;;;0.90;99.90;;;;;;5058011;28;20808;-57
2024/03/08 02:29:56;;;;;;;30.90;23.90;;;0.90;99.90;;;;;;5058508;28;20950;-58
2024/03/08 02:32:23;;;;;;;36.10;24.50;;;0.90;99.90;;;;;;5058491;28;20516;-59
2024/03/08 02:34:51;;;;;;;32.00;23.40;;;0.80;1.00;;;;;;5058081;28;20796;-58
2024/03/08 02:37:18;;;;;;;30.27;22.43;;;0.90;1.00;;;;;;5058320;28;20507;-57
2024/03/08 02:39:46;;;;;;;32.57;24.90;;;1.00;99.90;;;;;;5058110;28;20493;-58
2024/03/08 02:42:14;;;;;;;34.00;23.00;;;1.00;99.90;;;;;;5058124;28;20464;-58
2024/03/08 02:44:44;;;;;;;32.73;24.70;;;1.00;99.90;;;;;;5058481;28;20494;-58
2024/03/08 02:47:12;;;;;;;30.03;23.20;;;1.00;99.90;;;;;;5058113;28;20793;-58
2024/03/08 02:49:39;;;;;;;29.00;24.10;;;1.00;99.90;;;;;;5057783;28;20489;-65
2024/03/08 02:52:07;;;;;;;32.93;25.33;;;0.90;91.00;;;;;;5057517;28;20951;-65
2024/03/08 02:54:34;;;;;;;31.30;23.10;;;0.80;99.90;;;;;;5056892;28;20973;-65
2024/03/08 02:57:03;;;;;;;32.93;24.90;;;0.80;1.00;;;;;;5057541;28;20488;-67
2024/03/08 02:59:31;;;;;;;31.73;25.17;;;0.80;99.90;;;;;;5057483;28;20458;-65
2024/03/08 03:01:58;;;;;;;30.77;23.70;;;0.80;1.00;;;;;;5057466;28;20492;-65
2024/03/08 03:04:26;;;;;;;32.30;25.20;;;0.80;99.90;;;;;;5057354;28;20655;-65
2024/03/08 03:06:54;;;;;;;33.50;24.73;;;0.70;1.00;;;;;;5057090;28;20466;-65
2024/03/08 03:09:27;;;;;;;30.37;23.30;;;0.80;1.00;;;;;;5056674;28;20520;-65
2024/03/08 03:11:55;;;;;;;34.73;24.57;;;0.80;1.00;;;;;;5057282;28;20903;-65
2024/03/08 03:14:24;;;;;;;29.30;23.57;;;0.70;99.90;;;;;;5057405;28;20488;-65
2024/03/08 03:16:54;;;;;;;29.63;24.07;;;0.70;99.90;;;;;;5056713;28;20469;-65
2024/03/08 03:19:21;;;;;;;30.80;24.63;;;0.80;99.90;;;;;;5056643;28;20469;-65
2024/03/08 03:21:48;;;;;;;34.47;25.83;;;0.70;1.00;;;;;;5056766;28;20462;-65
2024/03/08 03:24:16;;;;;;;28.60;23.93;;;0.80;99.90;;;;;;5057624;28;20489;-65
2024/03/08 03:26:43;;;;;;;37.33;23.97;;;0.70;1.00;;;;;;5057045;28;20940;-65
2024/03/08 03:29:11;;;;;;;31.57;24.80;;;0.70;99.90;;;;;;5057379;28;20496;-65
2024/03/08 03:31:40;;;;;;;29.93;24.10;;;0.70;99.90;;;;;;5057155;28;20469;-64
2024/03/08 03:34:08;;;;;;;31.17;23.03;;;0.70;99.90;;;;;;5057461;28;20493;-64
2024/03/08 03:36:37;;;;;;;33.20;24.50;;;0.70;16.00;;;;;;5057009;28;20466;-65
2024/03/08 03:39:10;;;;;;;29.17;23.43;;;0.70;44.20;;;;;;5056897;28;20945;-65
2024/03/08 03:41:38;;;;;;;32.43;24.73;;;0.60;99.90;;;;;;5057071;28;20501;-65
2024/03/08 03:44:06;;;;;;;32.33;25.40;;;0.60;1.00;;;;;;5056831;28;20465;-65
2024/03/08 03:46:33;;;;;;;31.93;24.10;;;0.50;99.90;;;;;;5057347;28;20746;-64
2024/03/08 03:49:03;;;;;;;33.90;25.53;;;0.60;99.90;;;;;;5056778;28;20461;-65
2024/03/08 03:51:30;;;;;;;31.70;24.87;;;0.50;99.90;;;;;;5056356;28;20496;-65
2024/03/08 03:53:58;;;;;;;36.53;25.33;;;0.50;99.90;;;;;;5056473;28;20451;-65
2024/03/08 03:56:27;;;;;;;27.80;23.70;;;0.60;1.00;;;;;;5056726;28;20472;-64
2024/03/08 03:58:54;;;;;;;27.30;22.50;;;0.70;1.00;;;;;;5056695;28;20457;-65
2024/03/08 04:01:22;;;;;;;30.33;23.00;;;0.70;1.00;;;;;;5062834;28;20457;-65
2024/03/08 04:03:49;;;;;;;33.80;24.93;;;0.70;1.00;;;;;;5076773;28;20902;-65
2024/03/08 04:06:17;;;;;;;29.33;24.77;;;0.60;1.00;;;;;;5076365;28;20925;-65
2024/03/08 04:08:43;;;;;;;32.43;23.67;;;0.60;1.00;;;;;;5076805;28;20794;-65
2024/03/08 04:11:11;;;;;;;33.87;24.63;;;0.50;1.00;;;;;;5076703;28;20487;-65
2024/03/08 04:13:38;;;;;;;31.60;23.73;;;0.50;99.90;;;;;;5076893;28;20451;-65
2024/03/08 04:16:07;;;;;;;27.90;23.67;;;0.50;99.90;;;;;;5076617;28;20465;-65
2024/03/08 04:18:37;;;;;;;32.33;23.97;;;0.60;40.10;;;;;;5076679;28;20464;-65
2024/03/08 04:21:07;;;;;;;29.00;23.83;;;0.50;99.90;;;;;;5076716;28;20464;-65
2024/03/08 04:23:36;;;;;;;28.90;23.57;;;0.40;99.90;;;;;;5076851;28;20749;-64
2024/03/08 04:26:05;;;;;;;30.17;21.87;;;0.40;99.90;;;;;;5076387;28;20459;-65
2024/03/08 04:28:32;;;;;;;31.70;22.67;;;0.40;1.00;;;;;;5076660;28;20464;-65
2024/03/08 04:31:00;;;;;;;32.90;25.20;;;0.30;99.90;;;;;;5076897;28;20788;-65
2024/03/08 04:33:28;;;;;;;31.73;22.80;;;0.40;99.90;;;;;;5076609;28;20458;-64
2024/03/08 04:35:55;;;;;;;33.40;23.73;;;0.40;99.90;;;;;;5080732;28;20546;-65
2024/03/08 04:38:22;;;;;;;33.13;23.80;;;0.50;99.90;;;;;;5080764;28;20492;-64
2024/03/08 04:40:51;;;;;;;32.87;23.40;;;0.60;99.90;;;;;;5080265;28;20488;-64
2024/03/08 04:43:20;;;;;;;31.33;22.30;;;0.70;99.90;;;;;;5080071;28;20461;-65
2024/03/08 04:45:48;;;;;;;33.57;23.93;;;0.70;99.90;;;;;;5080439;28;20495;-64
2024/03/08 04:48:15;;;;;;;30.87;22.33;;;0.80;1.00;;;;;;5080019;28;20468;-64
2024/03/08 04:50:44;;;;;;;26.10;20.90;;;0.80;99.90;;;;;;5080802;28;20583;-64
2024/03/08 04:53:11;;;;;;;34.03;23.33;;;0.90;1.00;;;;;;5081714;28;20464;-64
2024/03/08 04:55:39;;;;;;;27.50;21.00;;;1.10;1.00;;;;;;5081057;28;20468;-64
2024/03/08 04:58:07;;;;;;;34.67;22.43;;;1.20;1.00;;;;;;5081026;28;20798;-64
2024/03/08 05:00:35;;;;;;;29.10;21.57;;;1.30;1.00;;;;;;5080873;28;20906;-64
2024/03/08 05:03:02;;;;;;;33.90;22.50;;;1.30;1.00;;;;;;5081280;28;20556;-64
2024/03/08 05:05:30;;;;;;;32.00;22.47;;;1.40;1.00;;;;;;5080138;28;20482;-64
2024/03/08 05:07:57;;;;;;;31.20;22.10;;;1.40;99.90;;;;;;5080562;28;20462;-64
2024/03/08 05:10:25;;;;;;;34.50;23.13;;;1.40;99.90;;;;;;5080696;28;20496;-64
2024/03/08 05:12:52;;;;;;;30.00;21.60;;;1.50;99.90;;;;;;5079968;28;20918;-64
2024/03/08 05:15:21;;;;;;;31.67;22.50;;;1.60;1.00;;;;;;5080180;28;20559;-64
2024/03/08 05:17:48;;;;;;;28.87;21.50;;;1.60;1.00;;;;;;5080714;28;20553;-64
2024/03/08 05:20:17;;;;;;;41.93;24.50;;;1.50;1.00;;;;;;5080823;28;20499;-65
2024/03/08 05:22:44;;;;;;;27.43;21.33;;;1.50;1.00;;;;;;5080541;28;20522;-65
2024/03/08 05:25:12;;;;;;;29.40;22.17;;;1.50;99.90;;;;;;5080152;28;20460;-64
2024/03/08 05:27:39;;;;;;;29.00;22.50;;;1.60;1.00;;;;;;5080447;28;20491;-64
2024/03/08 05:30:08;;;;;;;30.17;22.90;;;1.70;99.90;;;;;;5080361;28;20968;-65
2024/03/08 05:32:37;;;;;;;30.07;20.70;;;1.70;1.00;;;;;;5081165;28;20464;-64
2024/03/08 05:35:07;;;;;;;32.73;23.37;;;1.70;99.90;;;;;;5080648;28;20489;-64
2024/03/08 05:37:34;;;;;;;29.20;22.37;;;1.70;1.00;;;;;;5081258;28;20511;-64
2024/03/08 05:40:01;;;;;;;31.13;22.30;;;1.70;99.90;;;;;;5081420;28;20458;-64
2024/03/08 05:42:30;;;;;;;28.70;21.30;;;1.60;1.00;;;;;;5080985;28;20566;-64
2024/03/08 05:44:58;;;;;;;32.00;22.93;;;1.70;1.00;;;;;;5081011;28;20962;-64
2024/03/08 05:47:26;;;;;;;33.67;23.87;;;1.70;1.00;;;;;;5080637;28;20530;-64
2024/03/08 05:49:54;;;;;;;28.83;21.00;;;1.70;99.90;;;;;;5079816;28;20903;-64
2024/03/08 05:52:22;;;;;;;32.00;22.70;;;1.70;99.90;;;;;;5080478;28;20922;-65
2024/03/08 05:54:49;;;;;;;28.97;21.10;;;1.70;99.90;;;;;;5082028;28;20453;-64
2024/03/08 05:57:17;;;;;;;29.67;22.53;;;1.80;1.00;;;;;;5080466;28;20461;-64
2024/03/08 05:59:44;;;;;;;30.60;21.13;;;1.80;1.00;;;;;;5079957;28;20477;-64
2024/03/08 06:02:11;;;;;;;29.27;22.60;;;1.80;1.00;;;;;;5081316;28;20506;-64
2024/03/08 06:04:40;;;;;;;32.07;21.87;;;1.80;1.00;;;;;;5080895;28;20465;-64
2024/03/08 06:07:12;;;;;;;30.40;21.50;;;1.80;1.00;;;;;;5080982;28;20559;-64
2024/03/08 06:09:40;;;;;;;30.67;22.73;;;1.90;1.00;;;;;;5080548;28;20460;-64
2024/03/08 06:12:09;;;;;;;30.37;21.70;;;2.00;1.00;;;;;;5081157;28;20536;-64
2024/03/08 06:14:36;;;;;;;31.43;22.30;;;1.90;67.80;;;;;;5082226;28;20515;-64
2024/03/08 06:17:05;;;;;;;29.87;21.20;;;2.00;99.90;;;;;;5079072;28;20461;-58
2024/03/08 06:19:33;;;;;;;31.03;21.07;;;1.90;1.00;;;;;;5078494;28;20903;-59
2024/03/08 06:22:02;;;;;;;33.90;23.10;;;1.90;1.00;;;;;;5077714;28;20497;-58
2024/03/08 06:24:31;;;;;;;29.47;21.27;;;1.90;1.00;;;;;;5078722;28;20803;-59
2024/03/08 06:26:59;;;;;;;34.50;23.97;;;1.90;1.00;;;;;;5078324;28;20757;-58
2024/03/08 06:29:26;;;;;;;27.53;21.23;;;1.90;99.90;;;;;;5077990;28;20457;-58
2024/03/08 06:31:53;;;;;;;31.20;21.87;;;1.90;99.90;;;;;;5076513;28;20500;-58
2024/03/08 06:34:21;;;;;;;34.27;23.20;;;1.90;20.40;;;;;;5074389;28;20475;-60
2024/03/08 06:36:48;;;;;;;29.77;22.60;;;2.00;99.90;;;;;;5074434;28;20458;-59
2024/03/08 06:39:15;;;;;;;31.70;22.67;;;2.00;99.90;;;;;;5076367;28;20472;-64
2024/03/08 06:41:44;;;;;;;30.37;22.17;;;2.00;1.00;;;;;;5078419;28;20476;-64
2024/03/08 06:44:11;;;;;;;35.97;22.77;;;2.00;99.90;;;;;;5080221;28;20464;-64
2024/03/08 06:46:39;;;;;;;32.87;23.63;;;2.00;99.90;;;;;;5079646;28;20454;-64
2024/03/08 06:49:07;;;;;;;34.20;24.53;;;2.00;99.90;;;;;;5078399;28;20463;-59
2024/03/08 06:51:34;;;;;;;27.23;21.80;;;2.00;99.90;;;;;;5074215;28;21031;-59
2024/03/08 06:54:01;;;;;;;32.63;23.90;;;2.10;99.90;;;;;;5074283;28;20909;-58
2024/03/08 06:56:29;;;;;;;31.80;22.93;;;2.10;99.90;;;;;;5075511;28;20489;-57
2024/03/08 06:58:58;;;;;;;28.20;22.30;;;2.10;1.00;;;;;;5076163;28;20467;-59
2024/03/08 07:01:25;;;;;;;35.50;24.17;;;2.20;1.00;;;;;;5075723;28;20485;-58
2024/03/08 07:03:52;;;;;;;35.33;24.57;;;2.20;99.90;;;;;;5076049;28;20461;-58
2024/03/08 07:06:20;;;;;;;30.60;22.37;;;2.30;99.90;;;;;;5077246;28;20496;-58
2024/03/08 07:08:48;;;;;;;31.77;23.10;;;2.40;1.00;;;;;;5077384;28;20450;-58
2024/03/08 07:11:18;;;;;;;33.57;24.10;;;2.60;99.90;;;;;;5077449;28;20584;-58
2024/03/08 07:13:46;;;;;;;30.40;22.70;;;2.70;99.90;;;;;;5077176;28;20465;-58
2024/03/08 07:16:15;;;;;;;33.00;22.97;;;2.90;99.90;;;;;;5077793;28;20560;-60
2024/03/08 07:18:43;;;;;;;30.97;21.83;;;3.00;99.90;;;;;;5077994;28;20438;-60
2024/03/08 07:21:11;;;;;;;30.43;22.70;;;3.20;1.00;;;;;;5077099;28;20457;-60
2024/03/08 07:24:02;;;;;;;28.90;21.57;;;3.40;99.90;;;;;;5077650;28;20466;-60
2024/03/08 07:26:30;;;;;;;30.60;23.07;;;3.60;1.00;;;;;;5076873;28;20579;-60
2024/03/08 07:28:58;;;;;;;28.40;21.80;;;3.80;1.00;;;;;;5076843;28;20656;-61
2024/03/08 07:31:38;;;;;;;33.17;22.83;;;4.00;99.90;;;;;;5076563;28;20492;-60
2024/03/08 07:34:07;;;;;;;28.80;22.23;;;4.20;1.00;;;;;;5075382;28;20507;-60
2024/03/08 07:36:35;;;;;;;29.40;21.93;;;4.30;99.90;;;;;;5074975;28;20463;-60
2024/03/08 07:39:03;;;;;;;26.40;20.70;;;4.50;1.00;;;;;;5076791;28;20464;-60
2024/03/08 07:41:31;;;;;;;30.57;21.77;;;4.70;99.90;;;;;;5077253;28;20457;-60
2024/03/08 07:44:00;;;;;;;26.57;20.63;;;4.90;99.90;;;;;;5077151;28;20457;-60
2024/03/08 07:46:29;;;;;;;28.53;20.17;;;5.00;99.90;;;;;;5077142;28;20515;-60
2024/03/08 07:48:56;;;;;;;28.67;19.80;;;5.20;99.90;;;;;;5076688;28;20535;-59
2024/03/08 07:51:24;;;;;;;28.50;20.83;;;5.30;99.90;;;;;;5077327;28;20495;-60
2024/03/08 07:53:51;;;;;;;28.13;20.93;;;5.60;99.90;;;;;;5077429;28;20457;-60
2024/03/08 07:56:21;;;;;;;26.27;21.17;;;5.70;99.90;;;;;;5077592;28;20898;-60
2024/03/08 07:58:49;;;;;;;24.40;19.97;;;6.00;99.90;;;;;;5077548;28;20457;-60
2024/03/08 08:01:20;;;;;;;28.80;20.07;;;6.10;48.00;;;;;;5077475;28;20570;-60
2024/03/08 08:03:49;;;;;;;27.83;19.17;;;6.20;99.90;;;;;;5077285;28;20453;-60
2024/03/08 08:06:17;;;;;;;29.20;21.63;;;6.30;99.90;;;;;;5076774;28;20483;-61
2024/03/08 08:08:44;;;;;;;24.37;19.90;;;6.50;16.80;;;;;;5075707;28;20551;-61
2024/03/08 08:11:12;;;;;;;24.20;19.97;;;6.70;99.90;;;;;;5079037;28;20488;-61
2024/03/08 08:13:39;;;;;;;23.57;19.57;;;6.80;99.90;;;;;;5079015;28;20507;-61
2024/03/08 08:16:07;;;;;;;28.50;21.57;;;6.80;99.90;;;;;;5079154;28;20534;-61
2024/03/08 08:18:36;;;;;;;23.87;18.90;;;7.00;99.90;;;;;;5079161;28;20882;-62
2024/03/08 08:21:06;;;;;;;24.97;19.40;;;7.20;99.90;;;;;;5079006;28;20518;-61
2024/03/08 08:23:34;;;;;;;25.60;20.57;;;7.40;99.90;;;;;;5079446;28;20499;-61
2024/03/08 08:26:03;;;;;;;22.50;18.07;;;7.30;99.90;;;;;;5079255;28;20468;-61
2024/03/08 08:28:31;;;;;;;23.00;18.77;;;7.40;99.90;;;;;;5080568;28;20485;-61
2024/03/08 08:30:59;;;;;;;22.37;19.43;;;7.60;99.90;;;;;;5080098;28;20472;-61
2024/03/08 08:33:27;;;;;;;23.03;19.00;;;7.70;99.90;;;;;;5080467;28;20518;-61
2024/03/08 08:35:54;;;;;;;22.93;19.63;;;7.90;99.90;;;;;;5080507;28;20461;-61
2024/03/08 08:38:24;;;;;;;22.73;19.10;;;8.20;99.90;;;;;;5080174;28;20468;-62
2024/03/08 08:40:52;;;;;;;22.00;17.53;;;8.40;99.90;;;;;;5078961;28;20464;-61
2024/03/08 08:43:21;;;;;;;21.77;17.67;;;8.50;99.90;;;;;;5079518;28;20554;-62
2024/03/08 08:45:50;;;;;;;20.73;18.53;;;8.50;99.90;;;;;;5079111;28;20472;-61
2024/03/08 08:48:18;;;;;;;19.93;17.77;;;8.50;99.90;;;;;;5079519;28;20461;-61
2024/03/08 08:50:46;;;;;;;25.57;18.40;;;8.60;99.90;;;;;;5080399;28;20519;-61
2024/03/08 08:53:14;;;;;;;20.57;18.40;;;8.70;99.90;;;;;;5079559;28;20517;-61
2024/03/08 08:55:43;;;;;;;23.53;18.20;;;9.00;99.90;;;;;;5079841;28;20461;-62
2024/03/08 08:58:11;;;;;;;20.13;17.47;;;9.20;99.90;;;;;;5079906;28;20432;-61
2024/03/08 09:00:40;;;;;;;20.30;18.00;;;9.30;99.90;;;;;;5080130;28;20472;-61
2024/03/08 09:03:08;;;;;;;19.97;16.40;;;9.40;99.90;;;;;;5079031;28;20461;-61
2024/03/08 09:05:35;;;;;;;19.93;17.03;;;9.50;99.90;;;;;;5078251;28;20465;-62
2024/03/08 09:08:02;;;;;;;18.30;16.20;;;9.70;99.90;;;;;;5077395;28;21000;-63
2024/03/08 09:10:30;;;;;;;17.17;15.37;;;9.70;99.90;;;;;;5078028;28;20496;-62
2024/03/08 09:13:00;;;;;;;17.93;15.33;;;9.80;99.90;;;;;;5077406;28;20817;-61
2024/03/08 09:15:28;;;;;;;18.03;15.13;;;9.90;99.90;;;;;;5077691;28;20727;-62
2024/03/08 09:17:55;;;;;;;17.40;15.50;;;10.00;99.90;;;;;;5077780;28;20579;-61
2024/03/08 09:20:23;;;;;;;19.43;16.23;;;9.70;99.90;;;;;;5077456;28;20485;-64
2024/03/08 09:22:51;;;;;;;20.83;17.23;;;9.60;99.90;;;;;;5077457;28;20461;-61
2024/03/08 09:25:19;;;;;;;18.63;15.80;;;9.50;99.90;;;;;;5077508;28;20548;-61
2024/03/08 09:27:46;;;;;;;18.27;16.37;;;9.70;99.90;;;;;;5077300;28;20485;-61
2024/03/08 09:30:15;;;;;;;18.77;16.07;;;10.00;99.90;;;;;;5079333;28;20742;-61
2024/03/08 09:32:43;;;;;;;18.53;16.43;;;10.20;99.90;;;;;;5078581;28;20538;-61
2024/03/08 09:35:10;;;;;;;20.17;15.63;;;10.20;99.90;;;;;;5079406;28;20465;-61
2024/03/08 09:37:38;;;;;;;18.23;15.20;;;10.30;99.90;;;;;;5079168;28;20901;-61
2024/03/08 09:40:09;;;;;;;18.13;16.13;;;10.40;99.90;;;;;;5079155;28;20497;-61
2024/03/08 09:42:38;;;;;;;20.77;16.77;;;10.40;99.90;;;;;;5079300;28;20936;-62
2024/03/08 09:45:11;;;;;;;18.33;15.97;;;10.60;99.90;;;;;;5079118;28;20461;-61
2024/03/08 09:47:41;;;;;;;16.13;14.40;;;10.90;99.90;;;;;;5079115;28;20552;-62
2024/03/08 09:50:12;;;;;;;16.97;15.17;;;11.20;99.90;;;;;;5078988;28;20461;-62
2024/03/08 09:52:40;;;;;;;18.20;16.10;;;11.40;99.90;;;;;;5078370;28;20572;-62
2024/03/08 09:55:08;;;;;;;19.93;17.37;;;11.30;69.00;;;;;;5076833;28;20468;-61
2024/03/08 09:57:38;;;;;;;18.03;15.80;;;10.80;24.90;;;;;;5078027;28;20444;-63
2024/03/08 10:00:18;;;;;;;18.73;15.10;;;10.70;10.80;;;;;;5076432;28;20540;-63
2024/03/08 10:02:48;;;;;;;19.40;16.73;;;10.60;1.00;;;;;;5078669;28;20461;-62
2024/03/08 10:05:18;;;;;;;17.70;14.40;;;10.90;1.00;;;;;;5077903;28;20461;-63
2024/03/08 10:07:46;;;;;;;18.43;16.30;;;11.30;9.10;;;;;;5078167;28;20458;-63
2024/03/08 10:10:13;;;;;;;18.20;15.80;;;11.40;1.00;;;;;;5078413;28;20465;-63
2024/03/08 10:12:41;;;;;;;18.30;15.60;;;11.60;15.20;;;;;;5078189;28;20949;-64
2024/03/08 10:15:10;;;;;;;19.90;14.97;;;11.80;1.00;;;;;;5078526;28;20473;-63
2024/03/08 10:17:37;;;;;;;17.80;15.90;;;11.90;1.00;;;;;;5078223;28;20763;-64
2024/03/08 10:20:16;;;;;;;17.53;15.63;;;12.00;1.00;;;;;;5078192;28;20461;-63
2024/03/08 10:22:44;;;;;;;17.93;13.53;;;12.30;1.00;;;;;;5077648;28;20548;-63
2024/03/08 10:25:12;;;;;;;16.47;14.63;;;12.40;1.00;;;;;;5077748;28;20547;-63
2024/03/08 10:27:40;;;;;;;17.30;13.23;;;12.20;1.00;;;;;;5077897;28;20789;-64
2024/03/08 10:30:12;;;;;;;15.60;14.00;;;12.30;1.00;;;;;;5077904;28;20809;-65
2024/03/08 10:32:41;;;;;;;16.00;13.60;;;12.30;1.00;;;;;;5077231;28;20996;-63
2024/03/08 10:35:12;;;;;;;15.20;13.70;;;12.20;1.00;;;;;;5077884;28;20489;-63
2024/03/08 10:37:46;;;;;;;15.13;13.47;;;12.40;1.00;;;;;;5070657;28;20470;-64
2024/03/08 10:40:18;;;;;;;17.80;14.07;;;12.80;1.00;;;;;;5069689;28;20466;-64
2024/03/08 10:42:54;;;;;;;14.53;12.97;;;12.80;1.00;;;;;;5059741;28;20879;-64
2024/03/08 10:45:32;;;;;;;16.10;13.70;;;13.00;1.00;;;;;;5056381;28;20468;-64
2024/03/08 10:48:11;;;;;;;14.60;13.10;;;13.10;1.00;;;;;;5062524;28;20480;-62
2024/03/08 10:50:40;;;;;;;14.10;12.60;;;13.20;1.00;;;;;;5063515;28;20512;-63
2024/03/08 10:53:11;;;;;;;14.70;13.30;;;13.10;1.00;;;;;;5070938;28;20523;-67
2024/03/08 10:55:41;;;;;;;14.57;13.07;;;12.90;1.00;;;;;;5073093;28;20461;-64
2024/03/08 10:58:09;;;;;;;15.47;13.97;;;12.60;1.00;;;;;;5056215;28;20875;-63
2024/03/08 11:00:36;;;;;;;17.70;14.67;;;12.70;1.00;;;;;;5074622;28;20454;-63
2024/03/08 11:03:04;;;;;;;14.93;13.40;;;12.80;1.00;;;;;;5075311;28;20456;-62
2024/03/08 11:05:40;;;;;;;15.40;13.80;;;13.00;1.00;;;;;;5074836;28;20742;-62
2024/03/08 11:08:19;;;;;;;15.00;13.10;;;13.20;1.00;;;;;;5074346;28;20479;-64
2024/03/08 11:10:54;;;;;;;14.07;12.57;;;13.40;1.00;;;;;;5073863;28;20463;-63
2024/03/08 11:13:34;;;;;;;15.80;13.23;;;13.70;1.00;;;;;;5073607;28;20497;-63
2024/03/08 11:16:05;;;;;;;14.50;13.00;;;13.60;1.00;;;;;;5074933;28;20457;-63
2024/03/08 11:18:35;;;;;;;14.50;13.00;;;13.60;1.00;;;;;;5075025;28;20462;-68
2024/03/08 11:21:06;;;;;;;15.73;12.50;;;13.70;1.00;;;;;;5074940;28;20459;-67
2024/03/08 11:23:36;;;;;;;14.47;12.20;;;13.60;1.00;;;;;;5075797;28;20877;-68
2024/03/08 11:26:07;;;;;;;15.43;13.80;;;13.70;1.00;;;;;;5075280;28;20453;-68
2024/03/08 11:28:35;;;;;;;14.73;12.90;;;13.90;1.00;;;;;;5076747;28;20464;-70
2024/03/08 11:31:25;;;;;;;14.50;13.00;;;14.10;1.00;;;;;;5076536;28;20458;-68
2024/03/08 11:33:53;;;;;;;14.33;12.83;;;14.00;1.00;;;;;;5076358;28;20464;-68
2024/03/08 11:36:24;;;;;;;14.37;12.87;;;14.00;1.00;;;;;;5074899;28;20461;-67
2024/03/08 11:38:52;;;;;;;16.37;12.33;;;14.00;1.00;;;;;;5076743;28;20464;-69
2024/03/08 11:41:21;;;;;;;13.90;12.50;;;14.20;1.00;;;;;;5076387;28;20468;-68
2024/03/08 11:43:48;;;;;;;13.10;11.80;;;14.30;1.00;;;;;;5078836;28;20464;-68
2024/03/08 11:46:17;;;;;;;12.60;11.37;;;14.20;1.00;;;;;;5080759;28;20483;-66
2024/03/08 11:48:46;;;;;;;13.13;11.73;;;14.00;1.00;;;;;;5081555;28;20461;-68
2024/03/08 11:51:14;;;;;;;13.77;10.97;;;13.90;1.00;;;;;;5081317;28;20897;-67
2024/03/08 11:53:43;;;;;;;13.30;11.90;;;13.70;1.00;;;;;;5080525;28;20534;-67
2024/03/08 11:56:11;;;;;;;13.23;11.87;;;13.60;1.00;;;;;;5079648;28;20469;-66
2024/03/08 11:58:40;;;;;;;11.27;10.13;;;13.60;1.00;;;;;;5078804;28;20514;-65
2024/03/08 12:01:09;;;;;;;12.27;10.83;;;13.90;1.00;;;;;;5079139;28;20461;-64
2024/03/08 12:03:38;;;;;;;11.47;10.37;;;14.00;1.00;;;;;;5076649;28;20531;-67
2024/03/08 12:06:06;;;;;;;11.60;10.40;;;14.00;1.00;;;;;;5078416;28;20467;-67
2024/03/08 12:08:33;;;;;;;11.83;10.63;;;14.00;1.00;;;;;;5079442;28;20853;-67
2024/03/08 12:11:02;;;;;;;11.77;10.57;;;13.90;1.00;;;;;;5080406;28;20468;-68
2024/03/08 12:13:32;;;;;;;10.90;9.80;;;13.90;1.00;;;;;;5080514;28;20587;-67
2024/03/08 12:16:00;;;;;;;13.20;11.80;;;14.10;1.00;;;;;;5080417;28;20461;-67
2024/03/08 12:18:27;;;;;;;11.27;9.80;;;14.40;1.00;;;;;;5080479;28;20480;-67
2024/03/08 12:21:07;;;;;;;10.63;9.57;;;14.60;1.00;;;;;;5080229;28;20519;-68
2024/03/08 12:23:34;;;;;;;13.60;10.70;;;14.90;1.00;;;;;;5080302;28;20748;-67
2024/03/08 12:26:14;;;;;;;13.17;10.17;;;14.90;1.00;;;;;;5078918;28;20556;-67
2024/03/08 12:28:41;;;;;;;11.30;10.13;;;15.00;1.00;;;;;;5077745;28;20961;-68
2024/03/08 12:31:14;;;;;;;10.97;9.80;;;15.00;1.00;;;;;;5077663;28;20457;-67
2024/03/08 12:33:50;;;;;;;11.77;10.57;;;14.90;1.00;;;;;;5078448;28;20493;-67
2024/03/08 12:36:18;;;;;;;10.50;9.43;;;15.10;1.00;;;;;;5078801;28;20796;-67
2024/03/08 12:38:47;;;;;;;10.47;9.50;;;15.10;1.00;;;;;;5077578;28;20457;-67
2024/03/08 12:41:17;;;;;;;11.37;10.33;;;15.00;1.00;;;;;;5079120;28;20461;-67
2024/03/08 12:43:48;;;;;;;11.87;10.77;;;15.20;1.00;;;;;;5079534;28;20740;-67
2024/03/08 12:46:15;;;;;;;12.30;10.77;;;15.10;1.00;;;;;;5077779;28;20461;-67
2024/03/08 12:48:46;;;;;;;11.40;10.20;;;15.00;1.00;;;;;;5076820;28;20463;-67